createdAt,value
2023-02-14T00:02:13.393Z,10.63
2023-02-14T00:04:44.296Z,10.54
2023-02-14T00:07:13.460Z,10.54
2023-02-14T00:09:41.826Z,10.54
2023-02-14T00:12:10.231Z,10.55
2023-02-14T00:14:55.892Z,10.60
2023-02-14T00:17:25.607Z,10.46
2023-02-14T00:19:53.973Z,10.48
2023-02-14T00:22:22.423Z,10.52
2023-02-14T00:24:50.771Z,10.50
2023-02-14T00:27:19.076Z,9.80
2023-02-14T00:29:47.584Z,10.45
2023-02-14T00:32:16.019Z,10.51
2023-02-14T00:34:45.682Z,10.44
2023-02-14T00:37:14.091Z,10.34
2023-02-14T00:39:42.541Z,10.15
2023-02-14T00:42:10.815Z,10.02
2023-02-14T00:44:39.190Z,9.94
2023-02-14T00:47:07.853Z,9.95
2023-02-14T00:49:36.237Z,9.94
2023-02-14T00:52:06.276Z,9.91
2023-02-14T00:54:34.628Z,9.79
2023-02-14T00:57:02.940Z,9.99
2023-02-14T00:59:31.264Z,9.99
2023-02-14T01:01:59.501Z,9.98
2023-02-14T01:04:27.881Z,9.95
2023-02-14T01:06:56.261Z,10.02
2023-02-14T01:09:26.072Z,9.98
2023-02-14T01:11:55.052Z,9.93
2023-02-14T01:14:23.494Z,9.90
2023-02-14T01:16:51.936Z,9.93
2023-02-14T01:19:20.356Z,9.88
2023-02-14T01:21:48.758Z,9.80
2023-02-14T01:24:17.050Z,9.64
2023-02-14T01:26:46.750Z,9.59
2023-02-14T01:29:15.034Z,9.65
2023-02-14T01:31:44.934Z,9.62
2023-02-14T01:34:13.459Z,9.25
2023-02-14T01:36:42.134Z,9.75
2023-02-14T01:39:14.594Z,9.65
2023-02-14T01:41:48.476Z,9.60
2023-02-14T01:45:01.082Z,9.44
2023-02-14T01:47:33.209Z,9.21
2023-02-14T01:50:07.413Z,9.23
2023-02-14T01:52:39.352Z,9.18
2023-02-14T01:55:17.056Z,9.09
2023-02-14T01:57:52.291Z,9.00
2023-02-14T02:00:39.641Z,9.14
2023-02-14T02:03:09.495Z,9.29
2023-02-14T02:05:42.575Z,9.32
2023-02-14T02:08:11.171Z,9.20
2023-02-14T02:10:39.523Z,9.12
2023-02-14T02:13:16.183Z,8.91
2023-02-14T02:15:58.395Z,9.23
2023-02-14T02:18:45.410Z,9.32
2023-02-14T02:22:17.175Z,9.37
2023-02-14T02:24:56.917Z,9.48
2023-02-14T02:27:48.306Z,9.43
2023-02-14T02:30:55.619Z,9.29
2023-02-14T02:34:05.637Z,9.33
2023-02-14T02:36:52.982Z,9.26
2023-02-14T02:39:39.365Z,9.35
2023-02-14T02:42:22.475Z,9.32
2023-02-14T02:45:07.987Z,9.28
2023-02-14T02:47:43.869Z,9.20
2023-02-14T02:50:42.285Z,9.05
2023-02-14T02:53:23.796Z,9.05
2023-02-14T02:56:16.468Z,9.12
2023-02-14T02:58:49.480Z,9.21
2023-02-14T03:01:23.502Z,9.10
2023-02-14T03:04:16.241Z,8.96
2023-02-14T03:06:46.359Z,8.75
2023-02-14T03:09:53.842Z,8.56
2023-02-14T03:13:17.958Z,8.41
2023-02-14T03:16:08.004Z,8.45
2023-02-14T03:19:16.344Z,8.50
2023-02-14T03:21:54.539Z,8.49
2023-02-14T03:24:31.711Z,8.49
2023-02-14T03:27:08.061Z,8.39
2023-02-14T03:29:50.700Z,8.35
2023-02-14T03:32:30.892Z,8.24
2023-02-14T03:35:08.758Z,8.04
2023-02-14T03:37:42.786Z,7.94
2023-02-14T03:40:18.233Z,7.25
2023-02-14T03:42:53.595Z,7.88
2023-02-14T03:45:29.874Z,8.01
2023-02-14T03:48:03.416Z,7.79
2023-02-14T03:50:33.813Z,7.87
2023-02-14T03:53:04.340Z,7.79
2023-02-14T03:55:39.167Z,7.87
2023-02-14T03:58:12.262Z,8.00
2023-02-14T04:00:43.426Z,8.05
2023-02-14T04:03:14.864Z,7.92
2023-02-14T04:05:46.723Z,7.77
2023-02-14T04:08:23.045Z,7.75
2023-02-14T04:10:54.006Z,7.64
2023-02-14T04:13:22.434Z,7.67
2023-02-14T04:15:50.739Z,7.66
2023-02-14T04:18:36.700Z,7.60
2023-02-14T04:21:05.605Z,7.64
2023-02-14T04:23:33.869Z,7.60
2023-02-14T04:26:04.860Z,7.70
2023-02-14T04:28:33.884Z,7.65
2023-02-14T04:31:04.158Z,7.95
2023-02-14T04:33:33.225Z,8.16
2023-02-14T04:36:02.036Z,8.23
2023-02-14T04:38:30.474Z,8.28
2023-02-14T04:40:59.058Z,8.23
2023-02-14T04:43:28.999Z,8.14
2023-02-14T04:45:57.327Z,7.91
2023-02-14T04:48:25.592Z,7.87
2023-02-14T04:50:55.559Z,7.95
2023-02-14T04:53:24.051Z,8.00
2023-02-14T04:55:52.681Z,8.18
2023-02-14T04:58:21.025Z,7.69
2023-02-14T05:00:50.865Z,8.25
2023-02-14T05:03:19.148Z,8.32
2023-02-14T05:05:47.959Z,8.37
2023-02-14T05:08:16.235Z,8.45
2023-02-14T05:10:44.788Z,8.39
2023-02-14T05:13:13.105Z,8.43
2023-02-14T05:15:41.445Z,8.42
2023-02-14T05:18:11.063Z,8.39
2023-02-14T05:20:39.501Z,8.35
2023-02-14T05:23:13.544Z,8.29
2023-02-14T05:25:41.997Z,8.06
2023-02-14T05:28:10.775Z,8.21
2023-02-14T05:30:39.698Z,8.25
2023-02-14T05:33:09.825Z,8.15
2023-02-14T05:35:38.231Z,8.23
2023-02-14T05:38:06.780Z,8.27
2023-02-14T05:40:35.063Z,8.14
2023-02-14T05:43:03.322Z,8.15
2023-02-14T05:45:31.726Z,8.12
2023-02-14T05:48:00.021Z,7.95
2023-02-14T05:50:30.187Z,7.64
2023-02-14T05:52:59.031Z,7.46
2023-02-14T05:55:27.384Z,7.27
2023-02-14T05:57:55.975Z,7.14
2023-02-14T06:00:25.472Z,6.96
2023-02-14T06:02:53.893Z,6.83
2023-02-14T06:05:22.527Z,6.58
2023-02-14T06:07:52.463Z,6.67
2023-02-14T06:10:23.650Z,6.78
2023-02-14T06:12:54.429Z,6.69
2023-02-14T06:15:23.790Z,6.58
2023-02-14T06:17:56.607Z,6.50
2023-02-14T06:20:26.301Z,6.50
2023-02-14T06:22:56.104Z,6.40
2023-02-14T06:25:25.829Z,6.42
2023-02-14T06:27:58.107Z,6.45
2023-02-14T06:30:27.390Z,6.52
2023-02-14T06:32:56.076Z,6.52
2023-02-14T06:35:24.564Z,6.46
2023-02-14T06:37:52.833Z,6.45
2023-02-14T06:40:22.708Z,6.49
2023-02-14T06:42:51.067Z,6.50
2023-02-14T06:45:19.521Z,6.64
2023-02-14T06:47:47.927Z,6.77
2023-02-14T06:50:16.277Z,6.85
2023-02-14T06:52:44.584Z,6.85
2023-02-14T06:55:13.857Z,6.90
2023-02-14T06:57:43.568Z,7.05
2023-02-14T07:00:14.922Z,7.17
2023-02-14T07:02:43.734Z,7.31
2023-02-14T07:05:12.053Z,7.34
2023-02-14T07:07:40.408Z,7.38
2023-02-14T07:10:09.800Z,7.46
2023-02-14T07:12:39.503Z,7.54
2023-02-14T07:15:11.792Z,7.67
2023-02-14T07:17:40.516Z,7.72
2023-02-14T07:20:12.719Z,7.77
2023-02-14T07:22:41.455Z,7.71
2023-02-14T07:25:10.350Z,7.82
2023-02-14T07:27:38.715Z,8.00
2023-02-14T07:30:10.465Z,7.97
2023-02-14T07:32:39.616Z,8.36
2023-02-14T07:35:09.223Z,8.65
2023-02-14T07:37:37.629Z,8.95
2023-02-14T07:40:14.377Z,9.15
2023-02-14T07:42:43.742Z,9.34
2023-02-14T07:45:21.641Z,9.44
2023-02-14T07:47:52.201Z,9.61
2023-02-14T07:50:21.577Z,9.79
2023-02-14T07:52:51.155Z,9.93
2023-02-14T07:55:20.314Z,9.94
2023-02-14T07:57:49.646Z,9.51
2023-02-14T08:00:21.249Z,9.36
2023-02-14T08:02:49.687Z,9.35
2023-02-14T08:05:18.403Z,9.37
2023-02-14T08:07:47.296Z,9.24
2023-02-14T08:10:16.459Z,9.28
2023-02-14T08:13:03.536Z,9.72
2023-02-14T08:15:52.609Z,10.13
2023-02-14T08:18:23.605Z,10.40
2023-02-14T08:20:52.598Z,10.41
2023-02-14T08:23:22.096Z,10.26
2023-02-14T08:25:52.513Z,10.23
2023-02-14T08:28:24.405Z,10.33
2023-02-14T08:30:54.591Z,10.30
2023-02-14T08:33:23.855Z,9.78
2023-02-14T08:35:53.182Z,10.20
2023-02-14T08:38:22.378Z,10.70
2023-02-14T08:40:50.674Z,11.20
2023-02-14T08:43:19.135Z,11.36
2023-02-14T08:45:48.664Z,11.95
2023-02-14T08:48:18.366Z,11.87
2023-02-14T08:50:46.783Z,12.51
2023-02-14T08:53:15.250Z,12.80
2023-02-14T08:55:43.544Z,13.06
2023-02-14T08:58:12.049Z,13.31
2023-02-14T09:00:40.713Z,13.71
2023-02-14T09:03:10.622Z,13.86
2023-02-14T09:05:40.456Z,14.12
2023-02-14T09:08:09.022Z,14.16
2023-02-14T09:10:38.215Z,14.38
2023-02-14T09:13:07.314Z,14.47
2023-02-14T09:15:35.669Z,14.67
2023-02-14T09:18:03.990Z,14.68
2023-02-14T09:20:32.593Z,14.97
2023-02-14T09:23:02.217Z,15.21
2023-02-14T09:25:30.564Z,15.57
2023-02-14T09:27:59.046Z,15.85
2023-02-14T09:30:27.570Z,15.88
2023-02-14T09:32:56.119Z,16.26
2023-02-14T09:35:24.536Z,16.36
2023-02-14T09:38:10.416Z,16.51
2023-02-14T09:40:40.226Z,16.72
2023-02-14T09:43:16.835Z,16.93
2023-02-14T09:45:52.448Z,16.51
2023-02-14T09:48:29.701Z,17.28
2023-02-14T09:51:02.162Z,17.07
2023-02-14T09:53:34.148Z,16.88
2023-02-14T09:56:13.589Z,17.06
2023-02-14T09:58:49.046Z,17.15
2023-02-14T10:01:25.671Z,17.12
2023-02-14T10:04:24.256Z,16.98
2023-02-14T10:07:00.740Z,17.08
2023-02-14T10:09:50.736Z,17.00
2023-02-14T10:12:26.348Z,16.68
2023-02-14T10:14:56.962Z,17.08
2023-02-14T10:17:32.186Z,17.13
2023-02-14T10:20:05.880Z,16.91
2023-02-14T10:22:43.427Z,17.11
2023-02-14T10:25:22.379Z,16.64
2023-02-14T10:27:54.485Z,16.74
2023-02-14T10:30:24.934Z,16.96
2023-02-14T10:33:06.903Z,17.37
2023-02-14T10:35:43.720Z,17.41
2023-02-14T10:38:34.747Z,17.65
2023-02-14T10:41:24.820Z,17.35
2023-02-14T10:44:06.104Z,17.61
2023-02-14T10:46:43.837Z,17.23
2023-02-14T10:49:33.158Z,17.46
2023-02-14T10:52:09.850Z,17.44
2023-02-14T10:54:41.672Z,17.52
2023-02-14T10:57:17.515Z,17.83
2023-02-14T10:59:54.254Z,16.63
2023-02-14T11:02:27.140Z,16.96
2023-02-14T11:04:56.198Z,17.23
2023-02-14T11:07:24.786Z,17.43
2023-02-14T11:09:53.148Z,17.40
2023-02-14T11:12:40.102Z,17.43
2023-02-14T11:15:27.553Z,17.12
2023-02-14T11:18:17.298Z,17.02
2023-02-14T11:21:00.305Z,16.84
2023-02-14T11:23:28.778Z,16.88
2023-02-14T11:25:57.709Z,16.53
2023-02-14T11:28:26.199Z,16.63
2023-02-14T11:30:56.995Z,16.82
2023-02-14T11:33:36.331Z,16.64
2023-02-14T11:36:07.352Z,16.74
2023-02-14T11:38:38.415Z,15.42
2023-02-14T11:41:10.159Z,14.41
2023-02-14T11:43:40.434Z,13.84
2023-02-14T11:46:17.185Z,14.18
2023-02-14T11:49:01.464Z,14.20
2023-02-14T11:51:33.232Z,14.02
2023-02-14T11:54:05.303Z,13.95
2023-02-14T11:56:54.310Z,13.96
2023-02-14T11:59:36.364Z,14.40
2023-02-14T12:02:24.354Z,14.39
2023-02-14T12:04:57.761Z,14.14
2023-02-14T12:07:31.046Z,14.12
2023-02-14T12:10:27.236Z,14.70
2023-02-14T12:13:02.512Z,15.22
2023-02-14T12:15:40.742Z,15.19
2023-02-14T12:18:42.241Z,14.56
2023-02-14T12:21:26.175Z,14.80
2023-02-14T12:24:04.589Z,14.94
2023-02-14T12:26:37.417Z,14.56
2023-02-14T12:29:16.615Z,15.06
2023-02-14T12:31:46.373Z,15.38
2023-02-14T12:34:18.257Z,15.27
2023-02-14T12:37:32.836Z,15.03
2023-02-14T12:40:22.461Z,15.15
2023-02-14T12:43:09.262Z,15.31
2023-02-14T12:46:12.816Z,15.82
2023-02-14T12:49:02.999Z,15.78
2023-02-14T12:51:40.569Z,15.81
2023-02-14T12:54:32.308Z,16.32
2023-02-14T12:57:13.679Z,16.31
2023-02-14T12:59:51.933Z,16.77
2023-02-14T13:03:01.840Z,16.95
2023-02-14T13:05:45.190Z,16.74
2023-02-14T13:08:37.685Z,16.90
2023-02-14T13:11:16.902Z,17.07
2023-02-14T13:13:55.978Z,17.30
2023-02-14T13:16:33.622Z,17.30
2023-02-14T13:19:12.728Z,17.30
2023-02-14T13:21:42.452Z,17.26
2023-02-14T13:24:19.388Z,17.57
2023-02-14T13:26:53.781Z,17.97
2023-02-14T13:29:25.564Z,18.26
2023-02-14T13:31:58.805Z,18.56
2023-02-14T13:34:31.567Z,18.82
2023-02-14T13:37:01.984Z,19.03
2023-02-14T13:39:38.491Z,19.29
2023-02-14T13:42:08.477Z,19.31
2023-02-14T13:44:48.091Z,19.23
2023-02-14T13:47:21.145Z,19.43
2023-02-14T13:49:53.127Z,19.45
2023-02-14T13:52:43.293Z,19.48
2023-02-14T13:55:20.574Z,19.48
2023-02-14T13:58:03.253Z,19.50
2023-02-14T14:00:43.644Z,19.49
2023-02-14T14:03:16.511Z,19.55
2023-02-14T14:06:07.404Z,19.65
2023-02-14T14:08:56.127Z,19.57
2023-02-14T14:12:00.788Z,19.42
2023-02-14T14:14:39.713Z,19.50
2023-02-14T14:17:29.005Z,19.35
2023-02-14T14:19:58.097Z,19.50
2023-02-14T14:22:27.025Z,19.46
2023-02-14T14:25:01.657Z,19.52
2023-02-14T14:27:36.027Z,19.40
2023-02-14T14:30:07.837Z,19.36
2023-02-14T14:32:38.957Z,19.35
2023-02-14T14:35:19.043Z,18.57
2023-02-14T14:37:50.032Z,19.04
2023-02-14T14:40:26.546Z,18.88
2023-02-14T14:43:01.113Z,18.86
2023-02-14T14:45:31.952Z,18.99
2023-02-14T14:48:04.352Z,18.99
2023-02-14T14:50:34.641Z,18.99
2023-02-14T14:53:06.774Z,18.97
2023-02-14T14:55:38.796Z,19.02
2023-02-14T14:58:36.779Z,18.87
2023-02-14T15:01:06.801Z,19.00
2023-02-14T15:03:35.559Z,18.99
2023-02-14T15:06:09.692Z,19.04
2023-02-14T15:08:38.199Z,19.07
2023-02-14T15:11:11.397Z,19.05
2023-02-14T15:13:53.838Z,18.88
2023-02-14T15:16:26.678Z,18.54
2023-02-14T15:18:58.597Z,18.46
2023-02-14T15:21:27.778Z,18.67
2023-02-14T15:23:56.603Z,18.75
2023-02-14T15:26:29.762Z,18.62
2023-02-14T15:29:03.214Z,18.49
2023-02-14T15:31:35.595Z,18.57
2023-02-14T15:34:05.210Z,18.53
2023-02-14T15:36:36.013Z,18.33
2023-02-14T15:39:07.940Z,18.43
2023-02-14T15:41:37.179Z,18.45
2023-02-14T15:44:06.989Z,18.43
2023-02-14T15:46:38.916Z,18.40
2023-02-14T15:49:12.014Z,18.32
2023-02-14T15:51:41.790Z,18.26
2023-02-14T15:54:22.488Z,18.14
2023-02-14T15:56:53.839Z,18.08
2023-02-14T15:59:29.049Z,18.01
2023-02-14T16:02:01.123Z,17.99
2023-02-14T16:04:31.788Z,17.90
2023-02-14T16:07:17.433Z,17.65
2023-02-14T16:09:45.815Z,17.80
2023-02-14T16:12:33.778Z,17.69
2023-02-14T16:15:12.052Z,17.63
2023-02-14T16:17:41.973Z,17.66
2023-02-14T16:20:43.266Z,16.87
2023-02-14T16:23:22.136Z,17.37
2023-02-14T16:25:50.952Z,17.23
2023-02-14T16:28:19.489Z,16.65
2023-02-14T16:30:56.082Z,16.38
2023-02-14T16:33:27.744Z,16.33
2023-02-14T16:35:59.813Z,16.13
2023-02-14T16:38:28.187Z,15.89
2023-02-14T16:40:56.568Z,15.98
2023-02-14T16:43:25.178Z,15.37
2023-02-14T16:45:55.386Z,15.13
2023-02-14T16:48:23.712Z,15.55
2023-02-14T16:50:52.549Z,15.65
2023-02-14T16:53:27.956Z,15.73
2023-02-14T16:55:58.486Z,15.75
2023-02-14T16:58:34.277Z,15.72
2023-02-14T17:01:04.779Z,15.78
2023-02-14T17:03:33.098Z,15.78
2023-02-14T17:06:02.548Z,15.75
2023-02-14T17:08:32.412Z,15.66
2023-02-14T17:11:02.097Z,15.65
2023-02-14T17:13:34.785Z,15.59
2023-02-14T17:16:06.332Z,15.50
2023-02-14T17:18:36.564Z,15.33
2023-02-14T17:21:06.351Z,15.08
2023-02-14T17:23:34.639Z,15.10
2023-02-14T17:26:03.265Z,15.10
2023-02-14T17:28:31.623Z,14.95
2023-02-14T17:31:00.926Z,14.80
2023-02-14T17:33:32.789Z,14.86
2023-02-14T17:36:06.673Z,14.91
2023-02-14T17:38:35.950Z,14.88
2023-02-14T17:41:13.828Z,14.57
2023-02-14T17:43:42.448Z,14.55
2023-02-14T17:46:11.441Z,14.43
2023-02-14T17:48:41.490Z,14.32
2023-02-14T17:51:11.080Z,14.13
2023-02-14T17:53:41.540Z,14.08
2023-02-14T17:56:13.136Z,14.10
2023-02-14T17:58:41.992Z,13.83
2023-02-14T18:01:13.160Z,13.83
2023-02-14T18:03:43.292Z,13.85
2023-02-14T18:06:12.842Z,13.90
2023-02-14T18:08:46.235Z,13.98
2023-02-14T18:11:15.018Z,13.97
2023-02-14T18:13:44.400Z,13.97
2023-02-14T18:16:15.969Z,13.91
2023-02-14T18:18:46.018Z,13.79
2023-02-14T18:21:16.641Z,13.65
2023-02-14T18:23:44.946Z,13.44
2023-02-14T18:26:15.883Z,13.13
2023-02-14T18:28:44.822Z,13.15
2023-02-14T18:31:15.924Z,13.07
2023-02-14T18:33:48.766Z,12.89
2023-02-14T18:36:19.572Z,13.01
2023-02-14T18:38:49.850Z,12.99
2023-02-14T18:41:20.676Z,12.88
2023-02-14T18:43:50.014Z,12.95
2023-02-14T18:46:21.489Z,12.91
2023-02-14T18:48:52.038Z,12.83
2023-02-14T18:51:23.523Z,12.95
2023-02-14T18:53:54.442Z,12.88
2023-02-14T18:56:25.503Z,12.92
2023-02-14T18:59:00.716Z,12.82
2023-02-14T19:01:32.174Z,12.58
2023-02-14T19:04:02.572Z,12.65
2023-02-14T19:06:32.596Z,12.47
2023-02-14T19:09:01.768Z,12.41
2023-02-14T19:11:32.756Z,12.36
2023-02-14T19:14:03.437Z,12.31
2023-02-14T19:16:36.907Z,12.14
2023-02-14T19:19:06.948Z,12.13
2023-02-14T19:21:36.739Z,12.16
2023-02-14T19:24:08.021Z,12.14
2023-02-14T19:26:40.490Z,12.15
2023-02-14T19:29:11.629Z,12.13
2023-02-14T19:31:43.331Z,12.01
2023-02-14T19:34:19.693Z,11.91
2023-02-14T19:36:49.562Z,11.81
2023-02-14T19:39:19.099Z,11.80
2023-02-14T19:41:48.951Z,11.65
2023-02-14T19:44:19.156Z,11.61
2023-02-14T19:46:48.685Z,11.60
2023-02-14T19:49:20.617Z,11.56
2023-02-14T19:51:52.141Z,11.45
2023-02-14T19:54:21.960Z,11.73
2023-02-14T19:56:50.548Z,11.70
2023-02-14T19:59:22.555Z,11.75
2023-02-14T20:01:53.162Z,11.78
2023-02-14T20:04:25.426Z,11.88
2023-02-14T20:06:54.630Z,12.00
2023-02-14T20:09:23.982Z,11.96
2023-02-14T20:11:54.564Z,11.83
2023-02-14T20:14:25.636Z,11.76
2023-02-14T20:16:56.001Z,11.68
2023-02-14T20:19:29.465Z,11.59
2023-02-14T20:21:57.969Z,11.47
2023-02-14T20:24:28.483Z,11.49
2023-02-14T20:26:57.618Z,11.43
2023-02-14T20:29:26.861Z,11.50
2023-02-14T20:31:59.800Z,11.38
2023-02-14T20:34:30.047Z,11.36
2023-02-14T20:36:59.278Z,11.20
2023-02-14T20:39:31.806Z,11.19
2023-02-14T20:42:00.540Z,10.99
2023-02-14T20:44:29.250Z,11.01
2023-02-14T20:46:58.419Z,11.03
2023-02-14T20:49:30.941Z,10.97
2023-02-14T20:51:59.873Z,10.92
2023-02-14T20:54:29.814Z,10.77
2023-02-14T20:56:59.071Z,10.67
2023-02-14T20:59:28.770Z,10.63
2023-02-14T21:01:59.224Z,10.61
2023-02-14T21:04:29.814Z,10.66
2023-02-14T21:07:00.241Z,10.68
2023-02-14T21:09:28.690Z,10.64
2023-02-14T21:11:58.300Z,10.52
2023-02-14T21:14:26.808Z,10.63
2023-02-14T21:16:55.097Z,10.56
2023-02-14T21:19:23.498Z,10.50
2023-02-14T21:21:53.476Z,10.47
2023-02-14T21:24:21.922Z,10.49
2023-02-14T21:26:50.211Z,10.41
2023-02-14T21:29:18.750Z,10.36
2023-02-14T21:31:47.086Z,10.38
2023-02-14T21:34:17.146Z,10.28
2023-02-14T21:36:46.032Z,10.25
2023-02-14T21:39:16.058Z,10.25
2023-02-14T21:41:44.376Z,10.15
2023-02-14T21:44:32.770Z,10.12
2023-02-14T21:47:00.164Z,10.10
2023-02-14T21:49:46.244Z,10.19
2023-02-14T21:52:14.548Z,10.26
2023-02-14T21:54:44.218Z,10.17
2023-02-14T21:57:12.628Z,10.21
2023-02-14T21:59:41.206Z,10.19
2023-02-14T22:02:09.529Z,10.15
2023-02-14T22:04:38.368Z,9.97
2023-02-14T22:07:06.730Z,9.78
2023-02-14T22:09:35.224Z,9.74
2023-02-14T22:12:05.598Z,9.68
2023-02-14T22:14:33.921Z,9.61
2023-02-14T22:17:02.188Z,9.49
2023-02-14T22:19:30.665Z,9.45
2023-02-14T22:21:58.948Z,9.35
2023-02-14T22:24:27.444Z,9.33
2023-02-14T22:26:55.952Z,9.26
2023-02-14T22:29:25.693Z,9.28
2023-02-14T22:31:54.160Z,9.22
2023-02-14T22:34:22.482Z,9.25
2023-02-14T22:36:51.290Z,9.21
2023-02-14T22:39:20.044Z,9.02
2023-02-14T22:41:48.400Z,9.04
2023-02-14T22:44:16.723Z,8.95
2023-02-14T22:46:46.404Z,8.72
2023-02-14T22:49:15.053Z,8.58
2023-02-14T22:51:44.181Z,8.53
2023-02-14T22:54:15.411Z,8.45
2023-02-14T22:56:45.799Z,8.11
2023-02-14T22:59:19.724Z,7.72
2023-02-14T23:01:51.060Z,8.01
2023-02-14T23:04:22.682Z,7.79
2023-02-14T23:06:52.818Z,7.87
2023-02-14T23:09:21.827Z,7.82
2023-02-14T23:11:50.935Z,7.88
2023-02-14T23:14:37.710Z,7.93
2023-02-14T23:17:21.854Z,7.79
2023-02-14T23:20:07.479Z,7.84
2023-02-14T23:22:38.390Z,7.77
2023-02-14T23:25:09.455Z,7.69
2023-02-14T23:27:40.887Z,7.59
2023-02-14T23:30:14.226Z,7.64
2023-02-14T23:32:44.167Z,7.71
2023-02-14T23:35:12.477Z,7.53
2023-02-14T23:37:41.684Z,7.48
2023-02-14T23:40:11.464Z,7.23
2023-02-14T23:42:39.851Z,7.41
2023-02-14T23:45:32.403Z,7.57
2023-02-14T23:48:05.228Z,7.70
2023-02-14T23:50:33.528Z,7.70
2023-02-14T23:53:01.756Z,7.56
2023-02-14T23:55:30.072Z,7.52
2023-02-14T23:57:58.385Z,7.43
